Time;durP1;ratioP1;P1;durP2;ratioP2;P2;SDS_P1;SDS_P2;PMS_P1;PMS_P2;Temp;Humidity;BMP_temperature;BMP_pressure;BME280_temperature;BME280_humidity;BME280_pressure;Samples;Min_cycle;Max_cycle;Signal;HPM_P1;HPM_P2
2022/10/20 00:00:22;;;;;;;9.52;4.03;;;;;;;12.52;70.58;100854.59;10405628;28;20131;-67
2022/10/20 00:05:23;;;;;;;6.40;3.10;;;;;;;12.48;70.88;100850.56;10406925;28;20038;-67
2022/10/20 00:10:24;;;;;;;6.00;3.97;;;;;;;12.47;70.37;100852.41;10415961;28;20124;-67
2022/10/20 00:15:26;;;;;;;8.13;3.70;;;;;;;12.44;70.50;100858.16;10424452;28;20061;-68
2022/10/20 00:20:27;;;;;;;7.65;3.88;;;;;;;12.38;70.63;100847.22;10402059;28;20128;-66
2022/10/20 00:25:29;;;;;;;7.75;3.83;;;;;;;12.33;70.77;100838.84;10418456;28;20086;-66
2022/10/20 00:30:30;;;;;;;8.93;3.92;;;;;;;12.28;70.86;100842.03;10412847;28;20057;-65
2022/10/20 00:35:32;;;;;;;11.73;4.82;;;;;;;12.23;70.51;100828.28;10408860;28;20076;-65
2022/10/20 00:40:34;;;;;;;12.30;4.65;;;;;;;12.19;70.55;100817.00;10408127;28;20038;-66
2022/10/20 00:45:35;;;;;;;6.05;3.53;;;;;;;12.09;70.78;100803.72;10418725;28;20159;-66
2022/10/20 00:50:41;;;;;;;6.93;3.55;;;;;;;12.08;70.61;100796.69;10410776;28;20140;-66
2022/10/20 00:55:46;;;;;;;8.55;3.83;;;;;;;12.00;71.01;100794.00;10405943;28;20092;-66
2022/10/20 01:00:54;;;;;;;8.73;3.40;;;;;;;11.97;70.70;100791.66;10411329;28;20543;-66
2022/10/20 01:05:56;;;;;;;11.85;3.53;;;;;;;12.00;70.63;100775.13;10414221;28;20072;-67
2022/10/20 01:11:28;;;;;;;7.03;3.45;;;;;;;11.89;70.67;100765.59;10396302;28;20503;-67
2022/10/20 01:17:12;;;;;;;7.07;3.17;;;;;;;11.87;70.37;100759.50;10404529;28;20041;-66
2022/10/20 01:22:40;;;;;;;6.15;2.88;;;;;;;11.80;70.67;100758.50;10406768;28;20051;-67
2022/10/20 01:27:45;;;;;;;7.85;3.97;;;;;;;11.68;70.69;100749.97;10409502;28;20563;-66
2022/10/20 01:33:04;;;;;;;6.57;3.35;;;;;;;11.66;70.42;100743.91;10404534;28;20063;-68
2022/10/20 01:38:33;;;;;;;7.53;4.10;;;;;;;11.64;70.43;100745.94;10404569;28;20084;-66
2022/10/20 01:43:38;;;;;;;10.60;4.25;;;;;;;11.45;70.94;100752.56;10411224;28;20128;-66
2022/10/20 01:48:39;;;;;;;9.38;4.72;;;;;;;11.43;70.66;100751.91;10406134;28;20444;-66
2022/10/20 01:53:40;;;;;;;6.15;4.32;;;;;;;11.42;70.93;100730.53;10406461;28;20140;-66
2022/10/20 01:58:42;;;;;;;6.30;3.70;;;;;;;11.43;70.84;100726.81;10408233;28;20127;-65
2022/10/20 02:03:53;;;;;;;14.60;4.28;;;;;;;11.34;70.78;100735.94;10404998;28;20080;-66
2022/10/20 02:09:00;;;;;;;5.60;4.15;;;;;;;11.25;70.85;100725.16;10405644;28;20461;-66
2022/10/20 02:14:03;;;;;;;9.63;4.63;;;;;;;11.32;70.61;100720.78;10407974;28;20177;-65
2022/10/20 02:19:07;;;;;;;8.57;4.72;;;;;;;11.34;70.54;100728.69;10406438;28;20795;-65
2022/10/20 02:24:12;;;;;;;9.63;4.60;;;;;;;11.32;70.46;100719.97;10399444;28;20048;-67
2022/10/20 02:29:19;;;;;;;6.10;3.95;;;;;;;11.20;71.01;100716.78;10406947;28;20042;-66
2022/10/20 02:34:24;;;;;;;8.17;3.93;;;;;;;11.09;71.34;100701.00;10400232;28;20559;-66
2022/10/20 02:39:26;;;;;;;9.65;5.35;;;;;;;11.14;70.80;100709.41;10410606;28;20136;-66
2022/10/20 02:44:27;;;;;;;7.82;4.15;;;;;;;11.07;70.91;100692.25;10406232;28;20047;-66
2022/10/20 02:49:29;;;;;;;10.63;4.80;;;;;;;11.12;70.68;100695.28;10402754;28;20690;-66
2022/10/20 02:54:30;;;;;;;10.38;4.70;;;;;;;11.14;70.98;100689.69;10401129;28;20069;-66
2022/10/20 02:59:32;;;;;;;9.10;3.90;;;;;;;11.00;71.24;100688.56;10408015;28;20045;-65
2022/10/20 03:04:33;;;;;;;10.45;5.80;;;;;;;11.01;70.94;100695.63;10402165;28;20060;-65
2022/10/20 03:09:35;;;;;;;6.50;5.30;;;;;;;10.93;71.10;100691.09;10397048;28;20072;-66
2022/10/20 03:14:36;;;;;;;10.07;5.65;;;;;;;10.86;71.08;100693.63;10415141;28;20079;-66
2022/10/20 03:19:39;;;;;;;13.25;5.65;;;;;;;10.77;71.52;100691.94;10411780;28;20390;-65
2022/10/20 03:24:41;;;;;;;7.38;5.25;;;;;;;10.74;71.24;100678.81;10419014;28;20072;-66
2022/10/20 03:29:42;;;;;;;8.30;5.13;;;;;;;10.60;71.65;100687.56;10420519;28;20140;-65
2022/10/20 03:34:43;;;;;;;11.35;5.72;;;;;;;10.70;71.31;100675.66;10407152;28;20081;-66
2022/10/20 03:39:45;;;;;;;8.75;4.75;;;;;;;10.76;71.61;100668.75;10407701;28;20100;-67
2022/10/20 03:44:46;;;;;;;9.55;4.80;;;;;;;10.61;71.82;100659.69;10416722;28;20175;-66
2022/10/20 03:49:48;;;;;;;8.50;4.95;;;;;;;10.73;71.32;100641.38;10416469;28;20049;-66
2022/10/20 03:54:49;;;;;;;8.00;5.05;;;;;;;10.72;71.26;100648.56;10402068;28;20073;-66
2022/10/20 03:59:51;;;;;;;6.25;5.45;;;;;;;10.62;71.58;100656.00;10401045;28;20125;-66
2022/10/20 04:04:52;;;;;;;10.10;5.60;;;;;;;10.62;71.89;100661.38;10414951;28;20088;-66
2022/10/20 04:09:54;;;;;;;6.38;4.80;;;;;;;10.60;71.74;100661.53;10414398;28;20053;-66
2022/10/20 04:14:56;;;;;;;15.77;6.25;;;;;;;10.64;71.65;100651.28;10408156;28;20068;-65
2022/10/20 04:19:57;;;;;;;10.00;5.53;;;;;;;10.67;71.82;100640.19;10412735;28;20132;-66
2022/10/20 04:24:59;;;;;;;8.48;5.65;;;;;;;10.71;71.59;100612.78;10403929;28;20152;-65
2022/10/20 04:30:01;;;;;;;11.07;5.72;;;;;;;10.63;71.93;100607.44;10406004;28;20045;-67
2022/10/20 04:35:03;;;;;;;11.73;5.63;;;;;;;10.58;72.23;100595.50;10408078;28;20061;-66
2022/10/20 04:40:04;;;;;;;8.55;6.15;;;;;;;10.69;71.96;100601.38;10408193;28;20068;-66
2022/10/20 04:45:06;;;;;;;9.43;5.43;;;;;;;10.55;71.82;100603.94;10413066;28;20128;-65
2022/10/20 04:50:08;;;;;;;8.82;4.80;;;;;;;10.58;72.04;100582.06;10410685;28;20069;-65
2022/10/20 04:55:10;;;;;;;10.75;5.43;;;;;;;10.65;71.65;100580.38;10406756;28;20144;-65
2022/10/20 05:00:11;;;;;;;8.85;5.13;;;;;;;10.48;72.14;100591.13;10419027;28;20045;-66
2022/10/20 05:05:13;;;;;;;11.05;5.45;;;;;;;10.50;72.08;100569.47;10401153;28;20037;-65
2022/10/20 05:10:14;;;;;;;10.13;5.70;;;;;;;10.59;71.88;100554.19;10409497;28;20172;-65
2022/10/20 05:15:16;;;;;;;8.20;5.35;;;;;;;10.62;71.53;100543.09;10402609;28;20065;-65
2022/10/20 05:20:17;;;;;;;10.48;5.43;;;;;;;10.65;71.58;100534.69;10409798;28;20068;-65
2022/10/20 05:25:19;;;;;;;10.50;5.22;;;;;;;10.62;71.93;100529.63;10398380;28;20072;-67
2022/10/20 05:30:37;;;;;;;9.93;5.38;;;;;;;10.54;71.93;100527.81;10399719;28;20069;-66
2022/10/20 05:35:38;;;;;;;10.38;6.85;;;;;;;10.60;71.80;100526.28;10400181;28;20046;-66
2022/10/20 05:40:40;;;;;;;11.80;7.05;;;;;;;10.54;71.87;100513.53;10404324;28;20128;-66
2022/10/20 05:45:41;;;;;;;10.60;6.93;;;;;;;10.75;71.33;100513.81;10400956;28;20406;-69
2022/10/20 05:50:43;;;;;;;9.50;5.45;;;;;;;10.78;71.35;100528.75;10401444;28;20052;-69
2022/10/20 05:55:49;;;;;;;10.95;6.10;;;;;;;10.71;72.03;100526.75;10409636;28;20049;-69
2022/10/20 06:00:52;;;;;;;9.70;6.53;;;;;;;10.94;71.21;100525.16;10401600;28;20126;-68
2022/10/20 06:05:58;;;;;;;9.00;6.07;;;;;;;11.04;71.16;100517.75;10416385;28;20049;-68
2022/10/20 06:11:05;;;;;;;9.32;6.18;;;;;;;11.15;70.80;100520.03;10392757;28;20060;-68
2022/10/20 06:16:13;;;;;;;8.60;5.53;;;;;;;11.12;71.04;100536.53;10406185;28;20071;-68
2022/10/20 06:21:20;;;;;;;17.23;6.85;;;;;;;11.03;71.38;100532.19;10409558;28;20087;-68
2022/10/20 06:26:24;;;;;;;10.52;6.82;;;;;;;11.17;71.07;100538.69;10413527;28;20073;-68
2022/10/20 06:31:39;;;;;;;12.88;5.40;;;;;;;11.31;70.87;100533.44;10376215;28;20156;-72
2022/10/20 06:36:43;;;;;;;12.98;6.53;;;;;;;11.40;71.04;100542.28;10383363;28;20069;-72
2022/10/20 06:41:49;;;;;;;14.27;6.68;;;;;;;11.33;71.12;100541.31;10401721;28;20037;-73
2022/10/20 06:46:54;;;;;;;9.77;7.10;;;;;;;11.35;71.36;100549.19;10415877;28;20053;-72
2022/10/20 06:51:56;;;;;;;9.85;6.57;;;;;;;11.44;71.28;100546.28;10417537;28;20046;-70
2022/10/20 06:56:57;;;;;;;10.77;6.72;;;;;;;11.59;70.84;100549.09;10423403;28;20136;-72
2022/10/20 07:02:00;;;;;;;12.02;7.97;;;;;;;11.76;70.42;100552.50;10430125;28;20129;-69
2022/10/20 07:07:02;;;;;;;13.73;6.50;;;;;;;11.70;70.70;100580.13;10423050;28;20076;-68
2022/10/20 07:12:04;;;;;;;13.02;6.53;;;;;;;11.79;70.68;100580.91;10412149;28;20487;-71
2022/10/20 07:17:05;;;;;;;9.60;5.90;;;;;;;12.08;70.53;100556.00;10426494;28;20065;-69
2022/10/20 07:22:06;;;;;;;10.82;6.15;;;;;;;12.28;70.05;100557.19;10403312;28;20115;-68
2022/10/20 07:27:08;;;;;;;12.90;6.05;;;;;;;12.46;70.09;100564.06;10411919;28;20105;-68
2022/10/20 07:32:09;;;;;;;11.82;6.40;;;;;;;12.57;69.74;100552.84;10412184;28;20057;-68
2022/10/20 07:37:10;;;;;;;10.50;6.72;;;;;;;12.75;69.03;100554.34;10406869;28;20820;-68
2022/10/20 07:42:12;;;;;;;11.50;7.43;;;;;;;12.94;69.24;100561.91;10413309;28;20110;-69
2022/10/20 07:47:13;;;;;;;13.10;7.63;;;;;;;13.23;68.60;100550.25;10408988;28;20046;-68
2022/10/20 07:52:15;;;;;;;11.80;7.43;;;;;;;13.48;68.60;100531.03;10419749;28;20091;-69
2022/10/20 07:57:17;;;;;;;15.57;7.15;;;;;;;13.64;68.20;100533.50;10415080;28;20107;-68
2022/10/20 08:02:19;;;;;;;9.18;7.03;;;;;;;13.86;67.63;100526.25;10411359;28;20496;-69
2022/10/20 08:07:21;;;;;;;11.25;6.70;;;;;;;14.03;67.60;100537.63;10407687;28;20052;-69
2022/10/20 08:12:22;;;;;;;14.93;7.53;;;;;;;14.18;67.20;100537.56;10411711;28;20129;-68
2022/10/20 08:17:25;;;;;;;10.98;7.32;;;;;;;14.26;66.86;100532.00;10408210;28;20048;-68
2022/10/20 08:22:26;;;;;;;9.60;7.72;;;;;;;14.46;66.66;100529.44;10406376;28;20053;-68
2022/10/20 08:27:29;;;;;;;10.63;7.60;;;;;;;14.51;66.42;100536.97;10418213;28;20578;-69
2022/10/20 08:32:30;;;;;;;13.65;8.25;;;;;;;14.54;66.46;100514.13;10404662;28;20817;-68
2022/10/20 08:37:33;;;;;;;14.52;7.85;;;;;;;14.56;66.64;100525.56;10404046;28;20463;-68
2022/10/20 08:42:39;;;;;;;17.65;9.75;;;;;;;14.66;66.25;100517.97;10412722;28;20045;-69
2022/10/20 08:47:42;;;;;;;16.45;8.70;;;;;;;14.77;66.26;100516.56;10413059;28;20416;-69
2022/10/20 08:52:45;;;;;;;16.90;9.15;;;;;;;14.86;66.22;100501.84;10401864;28;20141;-68
2022/10/20 08:57:48;;;;;;;17.70;9.13;;;;;;;14.96;66.19;100501.47;10417402;28;20133;-68
2022/10/20 09:02:50;;;;;;;14.82;8.45;;;;;;;15.13;65.76;100493.84;10408710;28;20120;-68
2022/10/20 09:07:53;;;;;;;15.05;10.30;;;;;;;15.22;65.69;100470.94;10408035;28;20568;-68
2022/10/20 09:12:55;;;;;;;20.95;11.05;;;;;;;15.22;65.74;100498.03;10400156;28;20095;-69
2022/10/20 09:18:03;;;;;;;19.67;9.63;;;;;;;15.30;65.35;100483.47;10410580;28;20210;-69
2022/10/20 09:23:04;;;;;;;23.45;10.80;;;;;;;15.43;65.21;100468.09;10405245;28;20514;-69
2022/10/20 09:28:27;;;;;;;14.52;9.27;;;;;;;15.36;65.29;100498.91;10412679;28;20051;-68
2022/10/20 09:33:45;;;;;;;15.63;9.77;;;;;;;15.40;64.83;100497.47;10408757;28;20081;-68
2022/10/20 09:38:50;;;;;;;16.92;10.35;;;;;;;15.50;64.88;100475.41;10400745;28;20120;-68
2022/10/20 09:44:06;;;;;;;21.50;10.73;;;;;;;15.58;64.78;100458.94;10411941;28;20049;-68
2022/10/20 09:49:22;;;;;;;12.88;8.88;;;;;;;15.58;64.71;100476.06;10406991;28;20474;-67
2022/10/20 09:54:24;;;;;;;15.52;9.70;;;;;;;15.69;64.46;100484.63;10401703;28;20574;-68
2022/10/20 09:59:26;;;;;;;16.20;10.75;;;;;;;15.46;65.12;100497.50;10392352;28;20047;-68
2022/10/20 10:04:34;;;;;;;14.50;10.82;;;;;;;15.68;64.47;100483.78;10404818;28;20136;-68
2022/10/20 10:09:36;;;;;;;19.35;11.32;;;;;;;15.67;64.67;100491.06;10409162;28;20048;-62
2022/10/20 10:14:51;;;;;;;20.13;10.23;;;;;;;15.70;64.49;100475.41;10405032;28;20106;-65
2022/10/20 10:19:52;;;;;;;15.93;9.60;;;;;;;15.72;64.33;100465.22;10403585;28;20077;-66
2022/10/20 10:24:59;;;;;;;17.92;10.02;;;;;;;15.76;64.34;100483.63;10418719;28;20089;-66
2022/10/20 10:30:33;;;;;;;16.85;11.25;;;;;;;15.83;63.99;100481.72;10423826;28;20041;-65
2022/10/20 10:35:41;;;;;;;17.65;11.15;;;;;;;15.94;63.97;100463.19;10428531;28;20034;-67
2022/10/20 10:41:25;;;;;;;16.77;10.13;;;;;;;15.95;64.19;100464.84;10441412;28;20063;-68
2022/10/20 10:46:35;;;;;;;15.77;10.57;;;;;;;16.13;63.73;100451.47;10447229;28;20041;-68
2022/10/20 10:51:49;;;;;;;20.02;10.77;;;;;;;16.21;64.08;100436.88;10455271;28;20109;-68
2022/10/20 10:57:09;;;;;;;18.70;10.63;;;;;;;16.33;63.67;100431.63;10457294;28;20033;-68
2022/10/20 11:02:43;;;;;;;16.00;12.30;;;;;;;16.34;63.58;100426.00;10436430;28;20049;-67
2022/10/20 11:07:57;;;;;;;17.77;11.02;;;;;;;16.29;64.04;100414.97;10439222;28;20260;-68
2022/10/20 11:13:28;;;;;;;16.52;10.40;;;;;;;16.38;63.63;100410.97;10453361;28;20053;-68
2022/10/20 11:18:29;;;;;;;16.83;11.98;;;;;;;16.30;64.11;100402.22;10419522;28;20045;-68
2022/10/20 11:23:42;;;;;;;21.48;13.43;;;;;;;16.35;63.95;100381.56;10446621;28;20041;-69
2022/10/20 11:28:46;;;;;;;20.23;11.25;;;;;;;16.50;63.55;100380.47;10437477;28;20045;-69
2022/10/20 11:33:55;;;;;;;17.10;11.05;;;;;;;16.69;63.13;100379.56;10454628;28;20034;-66
2022/10/20 11:38:56;;;;;;;22.88;10.73;;;;;;;16.97;63.00;100376.50;10428956;28;20045;-67
2022/10/20 11:44:02;;;;;;;15.60;10.40;;;;;;;17.01;62.58;100375.03;10432598;28;20060;-66
2022/10/20 11:49:04;;;;;;;18.15;10.48;;;;;;;17.14;62.84;100382.28;10442022;28;20037;-67
2022/10/20 11:54:24;;;;;;;20.52;10.60;;;;;;;17.16;62.37;100374.75;10442569;28;20057;-67
2022/10/20 12:00:00;;;;;;;15.88;10.98;;;;;;;17.18;62.12;100379.94;10442382;28;20049;-67
2022/10/20 12:05:26;;;;;;;17.20;11.05;;;;;;;16.96;62.57;100368.56;10447637;28;20071;-67
2022/10/20 12:10:40;;;;;;;19.95;11.27;;;;;;;16.85;62.75;100373.66;10435723;28;20045;-67
2022/10/20 12:15:48;;;;;;;15.05;11.20;;;;;;;16.81;62.81;100390.56;10444966;28;20052;-66
2022/10/20 12:21:03;;;;;;;17.40;10.95;;;;;;;16.82;62.80;100390.41;10433265;28;20565;-67
2022/10/20 12:26:38;;;;;;;20.45;12.65;;;;;;;16.71;63.25;100368.50;10454873;28;20049;-67
2022/10/20 12:32:25;;;;;;;22.05;12.07;;;;;;;16.53;64.43;100371.88;10445425;28;20052;-67
2022/10/20 12:37:32;;;;;;;25.15;14.00;;;;;;;16.36;64.71;100377.78;10414921;28;20076;-67
2022/10/20 12:42:45;;;;;;;20.35;12.73;;;;;;;16.30;64.61;100373.22;10432326;28;20064;-66
2022/10/20 12:47:49;;;;;;;21.60;13.73;;;;;;;16.40;65.09;100376.31;10441969;28;20037;-66
2022/10/20 12:52:51;;;;;;;24.02;13.68;;;;;;;16.46;64.96;100369.19;10438181;28;20045;-65
2022/10/20 12:58:33;;;;;;;25.25;13.95;;;;;;;16.53;65.00;100347.44;10445133;28;20069;-67
2022/10/20 13:03:46;;;;;;;18.63;13.52;;;;;;;16.56;64.88;100357.88;10393803;28;20042;-67
2022/10/20 13:09:03;;;;;;;20.13;13.73;;;;;;;16.64;65.16;100365.78;10444048;28;20045;-67
2022/10/20 13:14:11;;;;;;;24.98;13.38;;;;;;;16.62;64.86;100359.75;10446823;28;20070;-67
2022/10/20 13:19:20;;;;;;;20.13;14.25;;;;;;;16.62;65.12;100366.00;10434995;28;20044;-66
2022/10/20 13:24:31;;;;;;;20.95;13.35;;;;;;;16.69;65.03;100357.84;10435342;28;20144;-66
2022/10/20 13:29:36;;;;;;;19.10;13.20;;;;;;;16.79;65.27;100355.47;10434514;28;20053;-67
2022/10/20 13:34:41;;;;;;;17.55;12.30;;;;;;;16.84;64.80;100349.44;10447890;28;20050;-67
2022/10/20 13:39:56;;;;;;;17.45;12.45;;;;;;;16.83;65.44;100335.03;10443671;28;20061;-67
2022/10/20 13:45:30;;;;;;;19.80;11.82;;;;;;;16.78;65.53;100326.66;10454637;28;20053;-67
2022/10/20 13:50:35;;;;;;;21.80;13.45;;;;;;;16.84;65.41;100311.41;10446921;28;20037;-67
2022/10/20 13:55:57;;;;;;;21.60;11.82;;;;;;;16.83;65.37;100312.47;10443405;28;20045;-67
2022/10/20 14:01:22;;;;;;;19.92;12.38;;;;;;;16.85;65.15;100327.50;10458663;28;20125;-68
2022/10/20 14:06:36;;;;;;;23.05;13.15;;;;;;;16.78;65.68;100318.50;10451908;28;20033;-67
2022/10/20 14:11:38;;;;;;;18.33;12.18;;;;;;;16.75;65.93;100313.53;10450848;28;20029;-68
2022/10/20 14:16:49;;;;;;;20.55;13.25;;;;;;;16.66;66.11;100309.41;10448563;28;20052;-67
2022/10/20 14:21:50;;;;;;;23.33;12.98;;;;;;;16.57;66.69;100322.41;10443403;28;20041;-67
2022/10/20 14:26:53;;;;;;;25.67;13.95;;;;;;;16.43;66.88;100326.22;10433066;28;20537;-68
2022/10/20 14:31:55;;;;;;;20.50;13.55;;;;;;;16.18;67.36;100326.94;10415047;28;20489;-69
2022/10/20 14:36:57;;;;;;;27.63;15.32;;;;;;;16.22;67.30;100328.16;10412459;28;20046;-69
2022/10/20 14:42:01;;;;;;;30.60;19.20;;;;;;;16.14;67.95;100320.28;10428005;28;20050;-67
2022/10/20 14:47:03;;;;;;;27.58;17.08;;;;;;;16.07;68.35;100333.00;10428850;28;20046;-69
2022/10/20 14:52:21;;;;;;;26.92;15.35;;;;;;;15.86;68.80;100363.94;10434691;28;20068;-69
2022/10/20 14:57:36;;;;;;;28.38;18.05;;;;;;;15.63;70.05;100340.75;10437326;28;20148;-68
2022/10/20 15:02:41;;;;;;;27.70;16.55;;;;;;;15.65;70.40;100321.59;10423187;28;20475;-66
2022/10/20 15:07:43;;;;;;;25.33;16.35;;;;;;;15.60;70.51;100338.50;10425869;28;20056;-67
2022/10/20 15:12:47;;;;;;;28.92;17.45;;;;;;;15.43;70.90;100321.81;10416333;28;20045;-60
2022/10/20 15:17:52;;;;;;;27.98;17.60;;;;;;;15.36;71.44;100328.25;10419586;28;20076;-61
2022/10/20 15:22:56;;;;;;;28.75;17.15;;;;;;;15.32;71.54;100321.59;10411964;28;20069;-59
2022/10/20 15:27:58;;;;;;;30.50;18.98;;;;;;;15.23;72.23;100299.31;10378380;28;20050;-62
2022/10/20 15:32:59;;;;;;;32.42;18.98;;;;;;;15.22;72.30;100313.88;10367847;28;20112;-62
2022/10/20 15:38:00;;;;;;;37.03;20.70;;;;;;;15.20;72.68;100302.44;10401210;28;20041;-63
2022/10/20 15:43:02;;;;;;;46.13;24.25;;;;;;;15.23;73.00;100283.06;10415335;28;20125;-62
2022/10/20 15:48:04;;;;;;;48.67;27.17;;;;;;;15.20;73.48;100268.03;10398381;28;20041;-60
2022/10/20 15:53:05;;;;;;;46.35;23.35;;;;;;;15.18;73.58;100266.59;10413596;28;20037;-62
2022/10/20 15:58:07;;;;;;;40.20;22.25;;;;;;;15.18;73.89;100253.06;10416515;28;20084;-61
2022/10/20 16:03:14;;;;;;;34.38;20.02;;;;;;;14.95;74.63;100262.44;10415080;28;20075;-64
2022/10/20 16:08:16;;;;;;;37.45;21.65;;;;;;;14.82;74.96;100249.72;10419194;28;20353;-62
2022/10/20 16:13:19;;;;;;;35.95;21.98;;;;;;;14.96;74.73;100238.91;10413024;28;20052;-61
2022/10/20 16:18:21;;;;;;;48.35;23.67;;;;;;;14.80;75.17;100234.72;10423322;28;20091;-61
2022/10/20 16:23:23;;;;;;;47.90;23.77;;;;;;;14.72;75.40;100230.34;10422936;28;20471;-62
2022/10/20 16:28:24;;;;;;;48.45;27.08;;;;;;;14.77;75.36;100213.47;10417262;28;20047;-60
2022/10/20 16:33:27;;;;;;;45.67;25.08;;;;;;;14.75;75.40;100213.72;10412737;28;20514;-58
2022/10/20 16:38:29;;;;;;;39.15;21.88;;;;;;;14.60;76.08;100223.88;10418582;28;20144;-59
2022/10/20 16:43:31;;;;;;;48.45;23.88;;;;;;;14.56;75.83;100236.97;10410033;28;20500;-56
2022/10/20 16:48:32;;;;;;;40.88;22.63;;;;;;;14.67;75.62;100233.69;10403944;28;20037;-57
2022/10/20 16:53:38;;;;;;;47.33;23.95;;;;;;;14.74;75.53;100225.56;10411560;28;20038;-57
2022/10/20 16:58:39;;;;;;;44.92;24.88;;;;;;;14.76;75.13;100201.81;10403174;28;20083;-58
2022/10/20 17:03:43;;;;;;;51.25;25.48;;;;;;;14.79;75.43;100201.44;10409671;28;20563;-59
2022/10/20 17:08:45;;;;;;;52.50;24.67;;;;;;;14.80;75.33;100188.72;10416163;28;20381;-57
2022/10/20 17:13:47;;;;;;;48.63;22.77;;;;;;;14.72;75.75;100202.47;10409866;28;20045;-58
2022/10/20 17:18:48;;;;;;;48.80;24.65;;;;;;;14.50;76.39;100224.25;10402572;28;20140;-56
2022/10/20 17:23:50;;;;;;;55.55;26.08;;;;;;;14.37;77.02;100233.13;10398856;28;20136;-57
2022/10/20 17:28:57;;;;;;;48.80;25.35;;;;;;;14.40;77.07;100235.44;10405333;28;20140;-58
2022/10/20 17:33:59;;;;;;;49.05;24.15;;;;;;;14.56;76.67;100253.22;10402246;28;20403;-56
2022/10/20 17:39:05;;;;;;;47.53;24.90;;;;;;;14.71;76.40;100242.22;10399510;28;20127;-60
2022/10/20 17:44:08;;;;;;;53.55;26.42;;;;;;;14.81;76.01;100253.47;10399811;28;20034;-59
2022/10/20 17:49:09;;;;;;;52.40;27.52;;;;;;;14.88;76.06;100253.47;10409547;28;20143;-57
2022/10/20 17:54:10;;;;;;;50.42;26.10;;;;;;;14.94;76.01;100257.22;10406895;28;20128;-59
2022/10/20 17:59:13;;;;;;;59.10;27.80;;;;;;;14.94;76.17;100217.44;10395050;28;20106;-56
2022/10/20 18:04:16;;;;;;;47.05;25.38;;;;;;;14.98;76.09;100204.34;10405709;28;20046;-57
2022/10/20 18:09:17;;;;;;;49.63;24.30;;;;;;;15.00;76.22;100161.66;10397841;28;20152;-57
2022/10/20 18:14:19;;;;;;;49.28;24.05;;;;;;;14.94;76.32;100114.59;10404914;28;20361;-59
2022/10/20 18:19:20;;;;;;;40.97;22.17;;;;;;;14.59;77.14;100211.38;10402020;28;20068;-59
2022/10/20 18:24:22;;;;;;;35.70;19.15;;;;;;;14.24;78.36;100225.00;10402513;28;20045;-60
2022/10/20 18:29:24;;;;;;;45.53;22.45;;;;;;;14.29;78.70;100211.69;10406120;28;20068;-58
2022/10/20 18:34:26;;;;;;;45.88;23.27;;;;;;;14.51;77.75;100195.31;10408319;28;20123;-57
2022/10/20 18:39:30;;;;;;;39.38;21.70;;;;;;;14.54;77.85;100198.44;10415084;28;20523;-60
2022/10/20 18:44:32;;;;;;;43.13;23.65;;;;;;;14.65;77.49;100169.97;10415991;28;20941;-59
2022/10/20 18:49:34;;;;;;;37.80;21.38;;;;;;;14.60;77.87;100180.59;10411442;28;20081;-60
2022/10/20 18:54:35;;;;;;;37.72;21.05;;;;;;;14.62;77.81;100209.09;10409990;28;20072;-57
2022/10/20 18:59:36;;;;;;;36.85;21.00;;;;;;;14.59;78.02;100200.56;10415635;28;20121;-57
2022/10/20 19:04:38;;;;;;;39.28;22.63;;;;;;;14.80;77.41;100205.78;10416287;28;20077;-61
2022/10/20 19:09:39;;;;;;;38.78;21.30;;;;;;;14.75;77.69;100189.34;10407447;28;20132;-59
2022/10/20 19:14:41;;;;;;;40.47;22.83;;;;;;;14.92;77.38;100178.94;10409065;28;20137;-59
2022/10/20 19:19:43;;;;;;;41.42;24.05;;;;;;;15.02;77.13;100173.91;10409491;28;20933;-58
2022/10/20 19:24:45;;;;;;;39.47;22.52;;;;;;;15.10;76.78;100174.75;10404161;28;20115;-57
2022/10/20 19:29:46;;;;;;;46.10;23.23;;;;;;;15.10;76.72;100153.94;10406628;28;20466;-58
2022/10/20 19:34:47;;;;;;;43.00;22.75;;;;;;;15.12;76.70;100178.09;10401833;28;20444;-58
2022/10/20 19:39:49;;;;;;;40.85;22.42;;;;;;;15.05;76.92;100165.41;10413435;28;20334;-57
2022/10/20 19:44:50;;;;;;;43.75;23.15;;;;;;;15.01;76.91;100171.44;10409050;28;20080;-58
2022/10/20 19:49:51;;;;;;;40.80;22.33;;;;;;;15.03;76.92;100169.34;10409653;28;20132;-61
2022/10/20 19:54:53;;;;;;;43.20;23.20;;;;;;;15.06;76.86;100152.69;10409833;28;20160;-62
2022/10/20 19:59:54;;;;;;;40.78;22.27;;;;;;;15.13;76.83;100139.16;10410165;28;20037;-58
2022/10/20 20:04:56;;;;;;;41.60;22.27;;;;;;;15.14;76.83;100119.97;10414382;28;20037;-57
2022/10/20 20:09:57;;;;;;;45.70;23.95;;;;;;;15.13;76.95;100109.38;10410371;28;20068;-60
2022/10/20 20:14:59;;;;;;;43.08;22.27;;;;;;;15.12;76.72;100110.41;10413009;28;20442;-58
2022/10/20 20:20:00;;;;;;;40.72;22.52;;;;;;;15.06;76.94;100096.66;10414366;28;20050;-59
2022/10/20 20:25:02;;;;;;;41.33;23.13;;;;;;;15.01;77.02;100084.81;10412869;28;20128;-60
2022/10/20 20:30:04;;;;;;;43.70;22.85;;;;;;;15.01;77.09;100091.06;10410290;28;20141;-59
2022/10/20 20:35:07;;;;;;;39.38;23.90;;;;;;;14.94;77.27;100105.66;10411386;28;20041;-60
2022/10/20 20:40:09;;;;;;;44.10;24.17;;;;;;;14.86;77.54;100123.75;10408941;28;20076;-63
2022/10/20 20:45:11;;;;;;;40.92;22.35;;;;;;;14.92;77.70;100118.56;10406862;28;20076;-59
2022/10/20 20:50:12;;;;;;;46.72;23.42;;;;;;;15.01;77.16;100118.13;10410609;28;20041;-58
2022/10/20 20:55:14;;;;;;;46.83;23.20;;;;;;;15.09;76.95;100130.63;10414225;28;20056;-57
2022/10/20 21:00:15;;;;;;;44.20;23.80;;;;;;;15.14;77.02;100119.16;10405286;28;20140;-61
2022/10/20 21:05:17;;;;;;;40.38;22.33;;;;;;;15.20;77.14;100118.28;10408127;28;20068;-57
2022/10/20 21:10:19;;;;;;;42.92;22.92;;;;;;;15.26;77.03;100109.31;10424515;28;20132;-59
2022/10/20 21:15:21;;;;;;;37.67;23.40;;;;;;;15.24;77.28;100114.13;10404398;28;20057;-59
2022/10/20 21:20:22;;;;;;;35.08;22.17;;;;;;;15.32;77.17;100107.63;10416096;28;20143;-61
2022/10/20 21:25:24;;;;;;;41.47;22.77;;;;;;;15.29;77.42;100089.13;10406469;28;20125;-59
2022/10/20 21:30:25;;;;;;;42.10;23.35;;;;;;;15.35;77.27;100089.09;10410141;28;20492;-58
2022/10/20 21:35:28;;;;;;;38.67;21.75;;;;;;;15.38;76.95;100074.28;10411171;28;20418;-60
2022/10/20 21:40:30;;;;;;;39.08;21.90;;;;;;;15.38;76.84;100093.25;10412148;28;20615;-58
2022/10/20 21:45:31;;;;;;;44.17;23.67;;;;;;;15.36;76.97;100081.78;10414896;28;20499;-60
2022/10/20 21:50:36;;;;;;;40.63;23.38;;;;;;;15.38;76.90;100079.69;10406569;28;20054;-59
2022/10/20 21:55:37;;;;;;;40.33;22.27;;;;;;;15.41;76.88;100080.09;10406502;28;20111;-58
2022/10/20 22:00:39;;;;;;;39.92;22.70;;;;;;;15.43;76.88;100072.59;10408031;28;20073;-58
2022/10/20 22:05:40;;;;;;;40.45;22.42;;;;;;;15.48;77.13;100074.66;10408157;28;20046;-60
2022/10/20 22:10:42;;;;;;;37.70;21.02;;;;;;;15.42;77.13;100075.50;10414205;28;20108;-58
2022/10/20 22:15:43;;;;;;;40.63;21.67;;;;;;;15.43;77.28;100059.06;10416029;28;20508;-58
2022/10/20 22:20:45;;;;;;;42.40;22.25;;;;;;;15.46;77.10;100063.19;10406742;28;20379;-58
2022/10/20 22:25:50;;;;;;;39.80;22.33;;;;;;;15.37;77.36;100073.44;10407540;28;20045;-59
2022/10/20 22:30:52;;;;;;;43.17;21.40;;;;;;;15.34;77.49;100078.47;10423185;28;20145;-59
2022/10/20 22:35:54;;;;;;;42.13;22.23;;;;;;;15.35;77.68;100075.53;10413407;28;20498;-63
2022/10/20 22:41:00;;;;;;;37.92;20.52;;;;;;;15.38;77.53;100053.47;10405538;28;20065;-60
2022/10/20 22:46:01;;;;;;;35.92;22.38;;;;;;;15.35;77.46;100059.28;10414756;28;20081;-58
2022/10/20 22:51:04;;;;;;;42.63;22.45;;;;;;;15.45;77.33;100061.56;10406717;28;20068;-59
2022/10/20 22:56:12;;;;;;;40.70;20.92;;;;;;;15.46;77.24;100058.63;10405263;28;20045;-58
2022/10/20 23:01:18;;;;;;;41.72;21.98;;;;;;;15.41;77.54;100055.72;10410624;28;20498;-59